Time;durP1;ratioP1;P1;durP2;ratioP2;P2;SDS_P1;SDS_P2;PMS_P1;PMS_P2;Temp;Humidity;BMP_temperature;BMP_pressure;BME280_temperature;BME280_humidity;BME280_pressure;Samples;Min_cycle;Max_cycle;Signal;HPM_P1;HPM_P2
2023/08/21 00:01:45;;;;;;;8.60;3.42;;;;;;;;;;4955084;29;20047;-83
2023/08/21 00:04:18;;;;;;;5.97;3.17;;;;;;;;;;4954593;29;20517;-82
2023/08/21 00:06:48;;;;;;;8.32;3.80;;;;;;;;;;4954696;29;20052;-81
2023/08/21 00:09:20;;;;;;;5.80;3.22;;;;;;;;;;4954857;29;20051;-81
2023/08/21 00:11:50;;;;;;;6.72;3.35;;;;;;;;;;4954678;29;20066;-81
2023/08/21 00:14:24;;;;;;;6.05;3.20;;;;;;;;;;4954911;29;20047;-83
2023/08/21 00:16:56;;;;;;;9.10;3.38;;;;;;;;;;4954709;29;20047;-81
2023/08/21 00:19:28;;;;;;;7.25;3.67;;;;;;;;;;4936971;29;20051;-83
2023/08/21 00:21:58;;;;;;;7.80;3.20;;;;;;;;;;4954278;29;20051;-84
2023/08/21 00:24:31;;;;;;;6.63;2.95;;;;;;;;;;4954684;28;20051;-81
2023/08/21 00:27:03;;;;;;;6.60;3.33;;;;;;;;;;4954178;29;20047;-82
2023/08/21 00:29:36;;;;;;;6.55;2.65;;;;;;;;;;4936439;29;20058;-81
2023/08/21 00:32:06;;;;;;;7.47;2.78;;;;;;;;;;4936545;29;20426;-81
2023/08/21 00:34:38;;;;;;;11.05;3.10;;;;;;;;;;4937089;29;20138;-83
2023/08/21 00:37:10;;;;;;;;;;;;;;;;;;4937119;29;20050;-82
2023/08/21 00:39:42;;;;;;;7.85;2.97;;;;;;;;;;4921384;29;19930;-81
2023/08/21 00:42:12;;;;;;;5.88;3.03;;;;;;;;;;4937322;29;20467;-81
2023/08/21 00:44:45;;;;;;;7.40;3.30;;;;;;;;;;4954192;29;20503;-81
2023/08/21 00:47:19;;;;;;;8.85;3.05;;;;;;;;;;4921118;29;20058;-81
2023/08/21 00:49:51;;;;;;;7.70;3.60;;;;;;;;;;4936661;29;20051;-82
2023/08/21 00:52:21;;;;;;;8.48;3.45;;;;;;;;;;4936317;29;20058;-82
2023/08/21 00:54:57;;;;;;;6.63;3.03;;;;;;;;;;4937324;29;20050;-85
2023/08/21 00:57:29;;;;;;;8.90;2.92;;;;;;;;;;4937069;29;20052;-83
2023/08/21 01:00:01;;;;;;;5.63;2.75;;;;;;;;;;4936119;29;20059;-83
2023/08/21 01:02:31;;;;;;;7.38;3.20;;;;;;;;;;4936895;29;20051;-81
2023/08/21 01:05:06;;;;;;;6.95;2.97;;;;;;;;;;4936248;29;20047;-82
2023/08/21 01:08:04;;;;;;;9.85;3.22;;;;;;;;;;4936082;29;20051;-82
2023/08/21 01:10:51;;;;;;;8.30;2.92;;;;;;;;;;4954086;29;20047;-80
2023/08/21 01:13:40;;;;;;;6.22;3.10;;;;;;;;;;4928606;29;20418;-83
2023/08/21 01:16:15;;;;;;;8.30;2.83;;;;;;;;;;4927475;29;20058;-81
2023/08/21 01:18:53;;;;;;;8.50;2.90;;;;;;;;;;4910101;29;20047;-82
2023/08/21 01:21:24;;;;;;;5.90;3.42;;;;;;;;;;4914858;29;20055;-81
2023/08/21 01:23:55;;;;;;;9.73;3.42;;;;;;;;;;4906644;29;20048;-82
2023/08/21 01:26:28;;;;;;;6.45;3.63;;;;;;;;;;4909324;29;20063;-82
2023/08/21 01:29:01;;;;;;;7.93;3.58;;;;;;;;;;4910334;29;20082;-82
2023/08/21 01:31:36;;;;;;;10.50;3.50;;;;;;;;;;4918026;29;20126;-82
2023/08/21 01:34:11;;;;;;;8.30;3.95;;;;;;;;;;4917654;29;20052;-82
2023/08/21 01:36:43;;;;;;;6.38;3.15;;;;;;;;;;4935068;29;20048;-83
2023/08/21 01:39:16;;;;;;;6.95;3.28;;;;;;;;;;4921706;29;20043;-83
2023/08/21 01:41:46;;;;;;;7.72;2.92;;;;;;;;;;4920786;29;20070;-82
2023/08/21 01:44:17;;;;;;;7.13;3.45;;;;;;;;;;4905244;29;20071;-80
2023/08/21 01:46:48;;;;;;;7.68;3.55;;;;;;;;;;4907685;29;20511;-80
2023/08/21 01:49:24;;;;;;;5.43;3.00;;;;;;;;;;4919033;29;20055;-80
2023/08/21 01:51:55;;;;;;;6.78;3.58;;;;;;;;;;4902249;29;20063;-84
2023/08/21 01:54:26;;;;;;;;;;;;;;;;;;4902217;29;20447;-82
2023/08/21 01:56:58;;;;;;;6.78;3.35;;;;;;;;;;4919143;29;19931;-81
2023/08/21 01:59:32;;;;;;;;;;;;;;;;;;4901752;29;20499;-81
2023/08/21 02:02:02;;;;;;;7.55;3.75;;;;;;;;;;4902011;29;19928;-80
2023/08/21 02:04:33;;;;;;;5.95;3.20;;;;;;;;;;4919625;29;20052;-85
2023/08/21 02:07:03;;;;;;;6.20;3.10;;;;;;;;;;4886615;29;20063;-81
2023/08/21 02:09:34;;;;;;;7.53;3.85;;;;;;;;;;4886526;29;20541;-78
2023/08/21 02:12:07;;;;;;;6.13;3.10;;;;;;;;;;4904769;29;20415;-78
2023/08/21 02:14:38;;;;;;;7.22;2.92;;;;;;;;;;4909139;29;20056;-80
2023/08/21 02:17:10;;;;;;;7.72;3.53;;;;;;;;;;4910207;29;20451;-80
2023/08/21 02:19:44;;;;;;;8.00;3.20;;;;;;;;;;4908406;29;20036;-80
2023/08/21 02:22:18;;;;;;;8.02;3.38;;;;;;;;;;4925847;29;20040;-79
2023/08/21 02:24:49;;;;;;;8.13;3.50;;;;;;;;;;4941076;29;20058;-77
2023/08/21 02:27:19;;;;;;;10.35;3.45;;;;;;;;;;4901150;29;20087;-81
2023/08/21 02:29:53;;;;;;;7.32;3.20;;;;;;;;;;4901321;29;20044;-84
2023/08/21 02:32:24;;;;;;;8.95;3.20;;;;;;;;;;4902066;29;20522;-79
2023/08/21 02:34:55;;;;;;;15.77;3.70;;;;;;;;;;4900738;29;20511;-80
2023/08/21 02:37:25;;;;;;;10.52;3.55;;;;;;;;;;4918405;29;20406;-83
2023/08/21 02:39:56;;;;;;;7.90;3.15;;;;;;;;;;4918383;29;20048;-81
2023/08/21 02:42:29;;;;;;;7.68;3.10;;;;;;;;;;4900757;29;20044;-84
2023/08/21 02:45:07;;;;;;;10.27;3.42;;;;;;;;;;4900940;29;20060;-83
2023/08/21 02:47:39;;;;;;;8.18;3.70;;;;;;;;;;4918414;29;20056;-82
2023/08/21 02:50:13;;;;;;;10.23;3.22;;;;;;;;;;4917981;29;20048;-82
2023/08/21 02:52:47;;;;;;;7.97;4.40;;;;;;;;;;4900771;29;20059;-82
2023/08/21 02:55:20;;;;;;;9.13;3.63;;;;;;;;;;4900800;29;20064;-82
2023/08/21 02:57:51;;;;;;;10.52;3.53;;;;;;;;;;4900371;29;20423;-83
2023/08/21 03:00:21;;;;;;;11.60;3.25;;;;;;;;;;4900556;29;20056;-82
2023/08/21 03:02:53;;;;;;;9.07;3.80;;;;;;;;;;4901370;29;20055;-82
2023/08/21 03:05:24;;;;;;;7.50;3.20;;;;;;;;;;4924118;29;20056;-80
2023/08/21 03:07:58;;;;;;;10.70;3.63;;;;;;;;;;4905935;29;20056;-80
2023/08/21 03:10:33;;;;;;;7.57;3.13;;;;;;;;;;4914149;29;20064;-80
2023/08/21 03:13:03;;;;;;;7.32;3.50;;;;;;;;;;4916584;29;20064;-79
2023/08/21 03:15:39;;;;;;;7.75;3.83;;;;;;;;;;4918240;29;20503;-80
2023/08/21 03:18:15;;;;;;;12.27;4.00;;;;;;;;;;4900960;29;20048;-82
2023/08/21 03:20:50;;;;;;;7.13;3.75;;;;;;;;;;4916754;29;20061;-81
2023/08/21 03:23:20;;;;;;;10.95;3.17;;;;;;;;;;4901202;29;20052;-79
2023/08/21 03:25:54;;;;;;;8.60;3.55;;;;;;;;;;4900514;29;20144;-81
2023/08/21 03:28:29;;;;;;;8.88;3.60;;;;;;;;;;4900293;29;20503;-81
2023/08/21 03:31:01;;;;;;;8.45;3.20;;;;;;;;;;4916025;29;20051;-80
2023/08/21 03:33:31;;;;;;;6.97;3.40;;;;;;;;;;4900531;29;20052;-78
2023/08/21 03:36:04;;;;;;;8.65;3.78;;;;;;;;;;4900149;29;20075;-78
2023/08/21 03:38:34;;;;;;;11.68;3.58;;;;;;;;;;4901374;29;20056;-83
2023/08/21 03:41:05;;;;;;;6.65;3.28;;;;;;;;;;4918488;29;20048;-82
2023/08/21 03:43:36;;;;;;;9.00;3.58;;;;;;;;;;4900300;29;20501;-80
2023/08/21 03:46:09;;;;;;;6.80;3.47;;;;;;;;;;4916679;29;20055;-84
2023/08/21 03:48:40;;;;;;;12.73;3.53;;;;;;;;;;4900924;29;20055;-82
2023/08/21 03:51:14;;;;;;;10.48;3.60;;;;;;;;;;4914861;29;20066;-82
2023/08/21 03:53:44;;;;;;;7.50;3.20;;;;;;;;;;4885254;29;20060;-81
2023/08/21 03:56:16;;;;;;;6.60;3.08;;;;;;;;;;4915004;29;20052;-80
2023/08/21 03:58:48;;;;;;;7.95;3.63;;;;;;;;;;4900451;29;20052;-84
2023/08/21 04:01:20;;;;;;;8.50;3.80;;;;;;;;;;4899815;29;20476;-81
2023/08/21 04:03:51;;;;;;;9.82;4.28;;;;;;;;;;4901256;29;20396;-82
2023/08/21 04:06:24;;;;;;;7.07;3.65;;;;;;;;;;4917805;29;20047;-82
2023/08/21 04:08:54;;;;;;;10.95;3.70;;;;;;;;;;4917369;29;20051;-80
2023/08/21 04:11:28;;;;;;;7.40;3.50;;;;;;;;;;4916768;29;20044;-81
2023/08/21 04:13:59;;;;;;;9.15;3.60;;;;;;;;;;4915389;29;20060;-80
2023/08/21 04:16:30;;;;;;;11.98;3.58;;;;;;;;;;4916230;29;20052;-80
2023/08/21 04:19:06;;;;;;;9.73;3.92;;;;;;;;;;4900124;29;20052;-80
2023/08/21 04:21:37;;;;;;;7.05;3.33;;;;;;;;;;4900656;29;20052;-81
2023/08/21 04:24:07;;;;;;;8.30;3.67;;;;;;;;;;4900798;29;20492;-81
2023/08/21 04:26:41;;;;;;;11.93;3.60;;;;;;;;;;4917327;29;20483;-82
2023/08/21 04:29:14;;;;;;;10.07;4.25;;;;;;;;;;4914295;29;20507;-80
2023/08/21 04:31:47;;;;;;;8.63;3.42;;;;;;;;;;4900119;29;20376;-79
2023/08/21 04:34:18;;;;;;;7.90;3.53;;;;;;;;;;4884536;29;20056;-78
2023/08/21 04:36:49;;;;;;;8.55;3.85;;;;;;;;;;4914898;29;20052;-79
2023/08/21 04:39:20;;;;;;;8.15;3.40;;;;;;;;;;4899948;29;20052;-79
2023/08/21 04:41:52;;;;;;;14.30;4.18;;;;;;;;;;4899505;29;20052;-80
2023/08/21 04:44:23;;;;;;;8.45;4.15;;;;;;;;;;4899523;29;20055;-80
2023/08/21 04:46:57;;;;;;;9.98;3.80;;;;;;;;;;4900049;29;20055;-81
2023/08/21 04:49:29;;;;;;;9.48;4.10;;;;;;;;;;4899755;29;20059;-79
2023/08/21 04:51:59;;;;;;;11.93;3.78;;;;;;;;;;4898965;29;20047;-80
2023/08/21 04:54:30;;;;;;;12.27;3.70;;;;;;;;;;4899610;29;20516;-79
2023/08/21 04:57:03;;;;;;;;;;;;;;;;;;4914384;29;20073;-80
2023/08/21 04:59:35;;;;;;;8.45;3.83;;;;;;;;;;4899367;29;19923;-79
2023/08/21 05:02:06;;;;;;;9.77;3.92;;;;;;;;;;4884747;29;20052;-81
2023/08/21 05:04:38;;;;;;;12.52;4.05;;;;;;;;;;4898900;29;20055;-80
2023/08/21 05:07:13;;;;;;;11.15;3.88;;;;;;;;;;4915193;29;20403;-83
2023/08/21 05:09:46;;;;;;;8.60;3.80;;;;;;;;;;4917031;29;20044;-80
2023/08/21 05:12:19;;;;;;;10.50;4.03;;;;;;;;;;4916872;29;20500;-80
2023/08/21 05:14:51;;;;;;;9.07;4.55;;;;;;;;;;4918731;29;20056;-82
2023/08/21 05:17:21;;;;;;;10.60;4.35;;;;;;;;;;4918240;29;20056;-78
2023/08/21 05:19:52;;;;;;;11.02;4.65;;;;;;;;;;4902871;29;20048;-80
2023/08/21 05:22:22;;;;;;;11.02;4.55;;;;;;;;;;4917922;29;20067;-80
2023/08/21 05:24:54;;;;;;;8.10;4.10;;;;;;;;;;4918315;29;20407;-80
2023/08/21 05:27:28;;;;;;;11.18;3.90;;;;;;;;;;4920787;29;20048;-81
2023/08/21 05:30:02;;;;;;;9.80;4.35;;;;;;;;;;4917558;29;20125;-80
2023/08/21 05:32:35;;;;;;;10.65;4.88;;;;;;;;;;4918430;29;20056;-82
2023/08/21 05:35:08;;;;;;;9.85;4.35;;;;;;;;;;4917890;29;20164;-81
2023/08/21 05:37:44;;;;;;;11.75;4.50;;;;;;;;;;4902735;29;20056;-80
2023/08/21 05:40:15;;;;;;;;;;;;;;;;;;4902897;29;20059;-81
2023/08/21 05:42:53;;;;;;;8.32;4.50;;;;;;;;;;4903486;29;19930;-81
2023/08/21 05:45:23;;;;;;;11.77;4.85;;;;;;;;;;4918844;29;20062;-80
2023/08/21 05:47:56;;;;;;;13.88;4.40;;;;;;;;;;4918595;29;20089;-82
2023/08/21 05:50:27;;;;;;;10.13;4.18;;;;;;;;;;4919500;29;20048;-80
2023/08/21 05:52:57;;;;;;;8.25;4.22;;;;;;;;;;4901854;29;20126;-81
2023/08/21 05:55:30;;;;;;;9.98;4.10;;;;;;;;;;4920336;29;20048;-81
2023/08/21 05:58:04;;;;;;;12.63;4.88;;;;;;;;;;4902706;29;20056;-81
2023/08/21 06:00:38;;;;;;;13.27;4.55;;;;;;;;;;4903031;29;20056;-81
2023/08/21 06:03:09;;;;;;;9.48;4.18;;;;;;;;;;4919848;29;20044;-81
2023/08/21 06:05:51;;;;;;;10.18;4.50;;;;;;;;;;4919773;29;20052;-81
2023/08/21 06:08:24;;;;;;;19.58;4.90;;;;;;;;;;4903410;29;20052;-80
2023/08/21 06:10:57;;;;;;;11.82;4.60;;;;;;;;;;4902562;29;20052;-80
2023/08/21 06:13:28;;;;;;;11.82;4.28;;;;;;;;;;4919151;29;20399;-82
2023/08/21 06:15:58;;;;;;;11.63;4.75;;;;;;;;;;4918519;29;20467;-79
2023/08/21 06:18:29;;;;;;;11.85;4.45;;;;;;;;;;4918358;29;20044;-80
2023/08/21 06:21:05;;;;;;;13.50;4.50;;;;;;;;;;4902095;29;20067;-80
2023/08/21 06:23:37;;;;;;;8.73;4.45;;;;;;;;;;4902938;29;20056;-81
2023/08/21 06:26:07;;;;;;;8.05;3.90;;;;;;;;;;4902348;29;20048;-82
2023/08/21 06:28:42;;;;;;;13.55;3.95;;;;;;;;;;4902280;29;20518;-83
2023/08/21 06:31:12;;;;;;;10.10;3.60;;;;;;;;;;4919867;29;20045;-82
2023/08/21 06:33:45;;;;;;;10.93;4.13;;;;;;;;;;4917553;29;20072;-80
2023/08/21 06:36:15;;;;;;;9.88;4.95;;;;;;;;;;4917418;29;20495;-81
2023/08/21 06:38:45;;;;;;;15.82;4.70;;;;;;;;;;4918976;29;20055;-80
2023/08/21 06:41:16;;;;;;;13.35;4.30;;;;;;;;;;4919669;29;20495;-80
2023/08/21 06:43:48;;;;;;;13.60;4.25;;;;;;;;;;4919490;29;20061;-81
2023/08/21 06:46:24;;;;;;;14.30;4.35;;;;;;;;;;4901886;29;20063;-80
2023/08/21 06:48:54;;;;;;;10.32;4.22;;;;;;;;;;4918578;29;20056;-79
2023/08/21 06:51:25;;;;;;;16.13;4.40;;;;;;;;;;4910119;29;20044;-80
2023/08/21 06:53:57;;;;;;;8.18;4.30;;;;;;;;;;4929214;29;20059;-79
2023/08/21 06:56:28;;;;;;;12.32;4.25;;;;;;;;;;4929460;29;20476;-80
2023/08/21 06:58:58;;;;;;;11.98;4.20;;;;;;;;;;4942016;29;20036;-78
2023/08/21 07:01:30;;;;;;;9.70;4.30;;;;;;;;;;4940930;29;20029;-80
2023/08/21 07:04:02;;;;;;;9.32;4.13;;;;;;;;;;4931077;29;20048;-82
2023/08/21 07:06:33;;;;;;;13.35;3.70;;;;;;;;;;4917863;29;20063;-80
2023/08/21 07:09:04;;;;;;;8.90;4.13;;;;;;;;;;4918629;29;20392;-80
2023/08/21 07:11:34;;;;;;;11.10;4.22;;;;;;;;;;4919267;29;20044;-79
2023/08/21 07:14:05;;;;;;;8.32;4.35;;;;;;;;;;4917233;29;20055;-80
2023/08/21 07:16:38;;;;;;;10.15;3.67;;;;;;;;;;4918498;29;20055;-82
2023/08/21 07:19:10;;;;;;;8.80;3.92;;;;;;;;;;4918374;29;20051;-80
2023/08/21 07:24:38;;;;;;;10.57;4.40;;;;;;;;;;4935168;29;20062;-79
2023/08/21 07:27:11;;;;;;;9.32;4.30;;;;;;;;;;4905059;29;20052;-81
2023/08/21 07:29:42;;;;;;;11.65;3.92;;;;;;;;;;4937241;29;20047;-80
2023/08/21 07:32:14;;;;;;;9.07;4.10;;;;;;;;;;4937968;29;20052;-78
2023/08/21 07:34:44;;;;;;;9.10;4.22;;;;;;;;;;4919083;29;20060;-79
2023/08/21 07:37:15;;;;;;;8.60;4.40;;;;;;;;;;4936480;29;20058;-80
2023/08/21 07:39:47;;;;;;;11.02;4.20;;;;;;;;;;4936763;29;20051;-81
2023/08/21 07:42:21;;;;;;;9.77;4.25;;;;;;;;;;4936660;29;20399;-80
2023/08/21 07:44:51;;;;;;;11.55;3.75;;;;;;;;;;4937319;29;20039;-81
2023/08/21 07:47:21;;;;;;;11.27;4.00;;;;;;;;;;4934879;29;20120;-79
2023/08/21 07:49:53;;;;;;;9.02;3.63;;;;;;;;;;4936377;29;20054;-80
2023/08/21 07:52:26;;;;;;;9.02;3.95;;;;;;;;;;4935841;29;20368;-80
2023/08/21 07:55:00;;;;;;;9.48;3.90;;;;;;;;;;4935669;29;20059;-82
2023/08/21 07:57:32;;;;;;;9.70;4.50;;;;;;;;;;4935421;29;20056;-82
2023/08/21 08:00:08;;;;;;;11.55;4.20;;;;;;;;;;4937784;29;20063;-81
2023/08/21 08:02:44;;;;;;;13.43;4.22;;;;;;;;;;4921016;29;20067;-83
2023/08/21 08:05:15;;;;;;;8.18;4.18;;;;;;;;;;4936960;29;20043;-80
2023/08/21 08:07:47;;;;;;;8.82;4.00;;;;;;;;;;4936806;29;20054;-80
2023/08/21 08:10:19;;;;;;;12.05;4.15;;;;;;;;;;4936741;29;20048;-82
2023/08/21 08:12:54;;;;;;;9.82;4.28;;;;;;;;;;4918710;29;20067;-79
2023/08/21 08:15:24;;;;;;;9.38;3.92;;;;;;;;;;4936637;29;20040;-81
2023/08/21 08:17:55;;;;;;;11.90;4.15;;;;;;;;;;4936956;29;20063;-81
2023/08/21 08:20:29;;;;;;;11.25;3.65;;;;;;;;;;4919933;29;20071;-81
2023/08/21 08:23:03;;;;;;;12.55;3.88;;;;;;;;;;4937030;29;20062;-80
2023/08/21 08:25:36;;;;;;;10.43;4.03;;;;;;;;;;4936739;29;20414;-81
2023/08/21 08:28:06;;;;;;;9.10;4.25;;;;;;;;;;4919720;29;20059;-81
2023/08/21 08:30:38;;;;;;;8.80;3.80;;;;;;;;;;4919040;29;20490;-81
2023/08/21 08:33:09;;;;;;;7.13;3.40;;;;;;;;;;4936591;29;20479;-80
2023/08/21 08:35:40;;;;;;;7.60;3.50;;;;;;;;;;4937064;29;20051;-80
2023/08/21 08:38:12;;;;;;;12.35;4.03;;;;;;;;;;4937200;29;20051;-80
2023/08/21 08:40:47;;;;;;;11.93;4.00;;;;;;;;;;4937321;29;20054;-81
2023/08/21 08:43:22;;;;;;;9.35;3.90;;;;;;;;;;4919930;29;20051;-80
2023/08/21 08:45:55;;;;;;;;;;;;;;;;;;4938319;29;20058;-81
2023/08/21 08:48:26;;;;;;;14.70;3.97;;;;;;;;;;4937289;29;19927;-81
2023/08/21 08:50:58;;;;;;;11.75;4.35;;;;;;;;;;4936808;29;20047;-81
2023/08/21 08:53:33;;;;;;;11.52;4.55;;;;;;;;;;4937749;29;20399;-80
2023/08/21 08:56:08;;;;;;;9.18;3.95;;;;;;;;;;4920274;29;20059;-82
2023/08/21 08:58:42;;;;;;;;;;;;;;;;;;4937758;29;20391;-82
2023/08/21 09:01:15;;;;;;;12.13;3.75;;;;;;;;;;4919339;29;19930;-80
2023/08/21 09:03:50;;;;;;;9.20;3.83;;;;;;;;;;4936021;29;20472;-80
2023/08/21 09:06:20;;;;;;;8.95;3.85;;;;;;;;;;4919503;29;20383;-81
2023/08/21 09:08:57;;;;;;;14.25;4.57;;;;;;;;;;4919902;29;20502;-82
2023/08/21 09:11:29;;;;;;;8.68;3.63;;;;;;;;;;4918783;29;20052;-79
2023/08/21 09:14:04;;;;;;;8.85;3.60;;;;;;;;;;4937319;29;20052;-80
2023/08/21 09:16:34;;;;;;;16.75;7.63;;;;;;;;;;4921176;29;20502;-82
2023/08/21 09:19:05;;;;;;;11.50;4.90;;;;;;;;;;4921751;29;20070;-81
2023/08/21 09:21:39;;;;;;;15.15;6.28;;;;;;;;;;4919699;29;20059;-80
2023/08/21 09:24:10;;;;;;;16.02;6.35;;;;;;;;;;4920714;29;20051;-81
2023/08/21 09:26:41;;;;;;;10.25;4.68;;;;;;;;;;4920379;29;20059;-80
2023/08/21 09:29:14;;;;;;;10.30;4.43;;;;;;;;;;4939652;29;20056;-79
2023/08/21 09:31:47;;;;;;;10.77;3.75;;;;;;;;;;4920404;29;20060;-80
2023/08/21 09:34:19;;;;;;;10.20;4.38;;;;;;;;;;4936723;29;20522;-81
2023/08/21 09:36:55;;;;;;;9.10;4.38;;;;;;;;;;4936398;29;20530;-79
2023/08/21 09:39:34;;;;;;;13.45;3.85;;;;;;;;;;4919351;29;20052;-82
2023/08/21 09:42:07;;;;;;;8.93;4.55;;;;;;;;;;4936723;29;20047;-81
2023/08/21 09:44:44;;;;;;;10.60;4.57;;;;;;;;;;4919317;29;20052;-80
2023/08/21 09:47:14;;;;;;;11.93;5.40;;;;;;;;;;4902568;29;20057;-80
2023/08/21 09:49:44;;;;;;;13.35;5.05;;;;;;;;;;4919499;29;20509;-82
2023/08/21 09:52:17;;;;;;;10.80;4.82;;;;;;;;;;4935653;29;20052;-81
2023/08/21 09:54:51;;;;;;;11.77;4.70;;;;;;;;;;4917950;29;20051;-80
2023/08/21 09:57:24;;;;;;;11.10;4.65;;;;;;;;;;4934630;29;20052;-81
2023/08/21 10:00:05;;;;;;;9.95;4.40;;;;;;;;;;4939695;29;20047;-81
2023/08/21 10:02:47;;;;;;;15.52;4.70;;;;;;;;;;4938050;29;20055;-81
2023/08/21 10:05:20;;;;;;;8.48;3.67;;;;;;;;;;4938464;29;20059;-81
2023/08/21 10:07:55;;;;;;;9.27;4.10;;;;;;;;;;4919462;29;20414;-80
2023/08/21 10:10:29;;;;;;;16.02;5.00;;;;;;;;;;4947326;29;20066;-81
2023/08/21 10:13:03;;;;;;;12.38;5.03;;;;;;;;;;4927903;29;20056;-80
2023/08/21 10:15:38;;;;;;;8.82;3.80;;;;;;;;;;4947343;29;20050;-79
2023/08/21 10:18:32;;;;;;;11.27;4.15;;;;;;;;;;4953017;29;20048;-79
2023/08/21 10:21:12;;;;;;;9.32;4.00;;;;;;;;;;4939373;29;20051;-81
2023/08/21 10:23:47;;;;;;;9.00;3.63;;;;;;;;;;4956257;29;20051;-79
2023/08/21 10:26:22;;;;;;;7.30;3.95;;;;;;;;;;4920298;29;20443;-83
2023/08/21 10:29:02;;;;;;;8.57;3.90;;;;;;;;;;4921236;29;20043;-82
2023/08/21 10:31:39;;;;;;;10.50;5.07;;;;;;;;;;4953204;29;20383;-83
2023/08/21 10:34:14;;;;;;;20.45;5.80;;;;;;;;;;4923195;29;20062;-81
2023/08/21 10:36:48;;;;;;;13.27;6.25;;;;;;;;;;4957160;29;20051;-83
2023/08/21 10:39:19;;;;;;;13.35;6.45;;;;;;;;;;4956842;29;20051;-82
2023/08/21 10:42:13;;;;;;;13.55;6.78;;;;;;;;;;4957390;29;20054;-81
2023/08/21 10:44:55;;;;;;;13.98;6.78;;;;;;;;;;4924286;29;20051;-82
2023/08/21 10:47:32;;;;;;;13.80;6.28;;;;;;;;;;4939411;29;20415;-81
2023/08/21 10:50:05;;;;;;;13.45;5.35;;;;;;;;;;4940350;29;20069;-80
2023/08/21 10:52:44;;;;;;;9.65;4.65;;;;;;;;;;4939494;29;20060;-82
2023/08/21 10:55:18;;;;;;;9.30;4.53;;;;;;;;;;4939871;29;20423;-81
2023/08/21 10:57:51;;;;;;;22.00;8.18;;;;;;;;;;4939801;29;20436;-80
2023/08/21 11:00:22;;;;;;;16.33;6.93;;;;;;;;;;4957096;29;20047;-82
2023/08/21 11:02:52;;;;;;;11.95;7.05;;;;;;;;;;4923377;29;20422;-79
2023/08/21 11:05:23;;;;;;;9.65;5.20;;;;;;;;;;4923224;29;20059;-83
2023/08/21 11:07:54;;;;;;;13.57;6.00;;;;;;;;;;4956471;29;20070;-83
2023/08/21 11:10:28;;;;;;;9.18;4.85;;;;;;;;;;4939679;29;20050;-83
2023/08/21 11:13:00;;;;;;;9.40;5.18;;;;;;;;;;4970308;29;20043;-79
2023/08/21 11:15:30;;;;;;;15.75;4.50;;;;;;;;;;4949033;29;20048;-80
2023/08/21 11:18:05;;;;;;;10.15;5.47;;;;;;;;;;4974327;29;20169;-79
2023/08/21 11:20:36;;;;;;;12.30;4.97;;;;;;;;;;4959841;29;20047;-77
2023/08/21 11:23:09;;;;;;;9.88;5.40;;;;;;;;;;4960919;29;20057;-79
2023/08/21 11:25:41;;;;;;;10.63;5.55;;;;;;;;;;4955848;29;20058;-79
2023/08/21 11:28:16;;;;;;;10.73;4.63;;;;;;;;;;4921134;29;20063;-80
2023/08/21 11:30:46;;;;;;;11.95;5.35;;;;;;;;;;4939180;29;20050;-82
2023/08/21 11:33:17;;;;;;;11.27;5.13;;;;;;;;;;4938985;29;20494;-83
2023/08/21 11:35:57;;;;;;;13.38;5.43;;;;;;;;;;4937427;29;20051;-83
2023/08/21 11:38:30;;;;;;;12.82;5.30;;;;;;;;;;4938427;29;20054;-81
2023/08/21 11:41:05;;;;;;;11.32;5.45;;;;;;;;;;4954300;29;20051;-83
2023/08/21 11:43:42;;;;;;;9.88;5.13;;;;;;;;;;4934348;29;20047;-81
2023/08/21 11:46:15;;;;;;;17.35;7.38;;;;;;;;;;4936717;29;20052;-82
2023/08/21 11:48:55;;;;;;;11.57;6.43;;;;;;;;;;4918620;29;20056;-81
2023/08/21 11:51:29;;;;;;;14.95;6.30;;;;;;;;;;4919887;29;20414;-81
2023/08/21 11:54:06;;;;;;;10.95;6.13;;;;;;;;;;4939043;29;20521;-81
2023/08/21 11:56:41;;;;;;;15.45;7.60;;;;;;;;;;4919148;29;20051;-79
2023/08/21 11:59:25;;;;;;;11.48;6.68;;;;;;;;;;4919406;29;20044;-80
2023/08/21 12:01:56;;;;;;;16.40;6.95;;;;;;;;;;4936592;29;20116;-80
2023/08/21 12:04:26;;;;;;;39.45;23.48;;;;;;;;;;4936737;29;20430;-80
2023/08/21 12:06:57;;;;;;;75.55;41.65;;;;;;;;;;4936281;29;20048;-80
2023/08/21 12:09:30;;;;;;;65.18;36.53;;;;;;;;;;4938675;29;20051;-81
2023/08/21 12:12:06;;;;;;;54.42;31.05;;;;;;;;;;4943761;29;20059;-82
2023/08/21 12:14:39;;;;;;;38.70;20.15;;;;;;;;;;4938308;29;20047;-83
2023/08/21 12:17:14;;;;;;;39.33;21.08;;;;;;;;;;4924952;29;20059;-83
2023/08/21 12:19:53;;;;;;;41.92;22.30;;;;;;;;;;4909066;29;20090;-82
2023/08/21 12:22:24;;;;;;;43.88;20.85;;;;;;;;;;4928008;29;20070;-85
2023/08/21 12:24:55;;;;;;;37.65;18.92;;;;;;;;;;4943092;29;20058;-82
2023/08/21 12:27:30;;;;;;;25.75;12.07;;;;;;;;;;4911138;29;20462;-84
2023/08/21 12:30:05;;;;;;;29.17;14.75;;;;;;;;;;4927179;29;20529;-84
2023/08/21 12:32:37;;;;;;;16.85;7.47;;;;;;;;;;4938396;29;20047;-83
2023/08/21 12:35:11;;;;;;;15.02;8.02;;;;;;;;;;4915586;29;20047;-83
2023/08/21 12:37:42;;;;;;;16.90;6.03;;;;;;;;;;4929397;29;20043;-83
2023/08/21 12:40:13;;;;;;;20.65;6.07;;;;;;;;;;4955170;29;20047;-86
2023/08/21 12:42:44;;;;;;;14.57;6.05;;;;;;;;;;4938253;29;20047;-82
2023/08/21 12:45:15;;;;;;;13.45;5.82;;;;;;;;;;4954997;29;20039;-85
2023/08/21 12:47:45;;;;;;;15.43;5.55;;;;;;;;;;4922872;29;20047;-83
2023/08/21 12:50:15;;;;;;;12.00;5.25;;;;;;;;;;4925944;29;20063;-83
2023/08/21 12:52:55;;;;;;;14.18;6.28;;;;;;;;;;4954256;29;20430;-85
2023/08/21 12:55:26;;;;;;;14.75;6.22;;;;;;;;;;4911282;29;20054;-82
2023/08/21 12:57:59;;;;;;;16.38;6.20;;;;;;;;;;4948466;29;20046;-82
2023/08/21 13:00:29;;;;;;;14.90;7.82;;;;;;;;;;4912023;29;20055;-82
2023/08/21 13:03:05;;;;;;;19.92;7.85;;;;;;;;;;4945396;29;20055;-82
2023/08/21 13:05:36;;;;;;;17.98;7.80;;;;;;;;;;4928805;29;20048;-83
2023/08/21 13:08:06;;;;;;;13.52;5.95;;;;;;;;;;4944742;29;20062;-83
2023/08/21 13:10:37;;;;;;;9.82;4.78;;;;;;;;;;4944919;29;20039;-82
2023/08/21 13:13:12;;;;;;;14.68;5.93;;;;;;;;;;4955126;29;20131;-82
2023/08/21 13:15:44;;;;;;;14.65;6.60;;;;;;;;;;4953358;29;20379;-82
2023/08/21 13:18:15;;;;;;;12.52;6.40;;;;;;;;;;4954833;29;20494;-84
2023/08/21 13:20:45;;;;;;;9.80;5.50;;;;;;;;;;4955465;29;20402;-81
2023/08/21 13:23:19;;;;;;;24.65;10.77;;;;;;;;;;4937359;29;20513;-82
2023/08/21 13:25:50;;;;;;;20.90;9.80;;;;;;;;;;4954906;29;20074;-81
2023/08/21 13:28:21;;;;;;;18.27;9.38;;;;;;;;;;4922859;29;20051;-81
2023/08/21 13:30:52;;;;;;;16.40;9.07;;;;;;;;;;4937353;29;20054;-81
2023/08/21 13:33:25;;;;;;;17.55;8.77;;;;;;;;;;4945042;28;20043;-82
2023/08/21 13:35:55;;;;;;;18.13;9.95;;;;;;;;;;4939069;29;20055;-83
2023/08/21 13:38:28;;;;;;;19.38;9.45;;;;;;;;;;4937932;29;20043;-84
2023/08/21 13:41:02;;;;;;;16.73;9.18;;;;;;;;;;4939038;29;20506;-83
2023/08/21 13:43:38;;;;;;;15.98;8.70;;;;;;;;;;4938950;29;20048;-83
2023/08/21 13:46:10;;;;;;;35.58;19.70;;;;;;;;;;4939601;29;20048;-84
2023/08/21 13:48:43;;;;;;;16.25;11.02;;;;;;;;;;4923692;29;20056;-83
2023/08/21 13:51:13;;;;;;;17.10;8.32;;;;;;;;;;4923658;29;20047;-80
2023/08/21 13:53:47;;;;;;;14.60;8.05;;;;;;;;;;4938944;29;20051;-81
2023/08/21 13:56:21;;;;;;;14.20;9.13;;;;;;;;;;4938397;29;20052;-84
2023/08/21 13:58:53;;;;;;;13.95;7.25;;;;;;;;;;4939697;29;20044;-82
2023/08/21 14:01:23;;;;;;;19.92;10.20;;;;;;;;;;4939200;29;20046;-81
2023/08/21 14:03:59;;;;;;;14.27;7.70;;;;;;;;;;4923855;29;20391;-80
2023/08/21 14:06:33;;;;;;;14.77;7.75;;;;;;;;;;4922917;29;20056;-81
2023/08/21 14:09:04;;;;;;;12.98;7.57;;;;;;;;;;4946517;29;20050;-81
2023/08/21 14:11:35;;;;;;;13.90;7.20;;;;;;;;;;4943422;29;20352;-81
2023/08/21 14:14:08;;;;;;;17.58;8.95;;;;;;;;;;4906681;29;20407;-80
2023/08/21 14:17:19;;;;;;;14.60;7.50;;;;;;;;;;4949615;28;20462;-79
2023/08/21 14:19:52;;;;;;;16.85;7.10;;;;;;;;;;4944423;29;20074;-81
2023/08/21 14:22:24;;;;;;;17.33;8.38;;;;;;;;;;4937398;29;20063;-79
2023/08/21 14:24:58;;;;;;;19.98;7.88;;;;;;;;;;4946251;29;20051;-82
2023/08/21 14:27:29;;;;;;;16.48;7.72;;;;;;;;;;4940629;29;20514;-81
2023/08/21 14:30:00;;;;;;;13.13;7.50;;;;;;;;;;4940683;29;20051;-83
2023/08/21 14:32:32;;;;;;;15.35;6.80;;;;;;;;;;4956621;29;20169;-84
2023/08/21 14:35:08;;;;;;;13.40;6.10;;;;;;;;;;4925372;29;20051;-83
2023/08/21 14:37:42;;;;;;;8.73;4.45;;;;;;;;;;4956774;29;20074;-82
2023/08/21 14:40:18;;;;;;;10.55;4.50;;;;;;;;;;4938015;29;20399;-83
2023/08/21 14:42:49;;;;;;;8.90;5.03;;;;;;;;;;4940138;29;20062;-82
2023/08/21 14:45:19;;;;;;;9.93;4.65;;;;;;;;;;4956106;28;20047;-84
2023/08/21 14:47:51;;;;;;;12.65;5.45;;;;;;;;;;4956197;29;20047;-83
2023/08/21 14:50:22;;;;;;;9.35;4.35;;;;;;;;;;4956317;29;20043;-81
2023/08/21 14:52:59;;;;;;;7.63;4.60;;;;;;;;;;4956591;29;20058;-83
2023/08/21 14:55:34;;;;;;;10.60;4.82;;;;;;;;;;4926553;29;20064;-83
2023/08/21 14:58:07;;;;;;;9.50;5.05;;;;;;;;;;4904125;29;20418;-84
2023/08/21 15:00:40;;;;;;;8.45;4.38;;;;;;;;;;4918897;29;20074;-83
2023/08/21 15:03:13;;;;;;;7.90;4.40;;;;;;;;;;4919792;29;20056;-84
2023/08/21 15:05:43;;;;;;;8.80;5.03;;;;;;;;;;4937018;29;20487;-85
2023/08/21 15:08:17;;;;;;;10.85;4.63;;;;;;;;;;4942747;29;20047;-84
2023/08/21 15:10:48;;;;;;;11.68;5.65;;;;;;;;;;4940635;29;20047;-83
2023/08/21 15:23:36;;;;;;;9.73;4.88;;;;;;;;;;4878465;29;20045;-82
2023/08/21 15:26:07;;;;;;;12.43;5.22;;;;;;;;;;4876528;29;20058;-83